Time;durP1;ratioP1;P1;durP2;ratioP2;P2;SDS_P1;SDS_P2;PMS_P1;PMS_P2;Temp;Humidity;BMP_temperature;BMP_pressure;BME280_temperature;BME280_humidity;BME280_pressure;Samples;Min_cycle;Max_cycle;Signal;HPM_P1;HPM_P2
2021/05/17 00:01:57;;;;;;;5.78;3.28;;;;;;;11.88;100.00;99477.28;5026089;28;20064;-75
2021/05/17 00:04:34;;;;;;;5.43;3.15;;;;;;;11.82;100.00;99478.06;5018587;28;20120;-74
2021/05/17 00:07:02;;;;;;;7.18;3.40;;;;;;;12.14;100.00;99478.69;5015513;28;20099;-75
2021/05/17 00:09:29;;;;;;;5.28;3.40;;;;;;;12.12;99.78;99470.97;5009744;28;20034;-74
2021/05/17 00:11:55;;;;;;;8.10;3.13;;;;;;;12.11;99.77;99468.69;5015828;28;20117;-74
2021/05/17 00:14:23;;;;;;;5.90;3.13;;;;;;;11.84;100.00;99473.06;5012428;28;20356;-74
2021/05/17 00:16:49;;;;;;;5.85;3.30;;;;;;;11.77;100.00;99460.34;5012787;28;20025;-75
2021/05/17 00:19:15;;;;;;;6.43;3.20;;;;;;;11.93;100.00;99471.47;5012595;28;20099;-75
2021/05/17 00:21:42;;;;;;;5.68;3.60;;;;;;;11.90;100.00;99468.78;5011017;28;20108;-75
2021/05/17 00:24:09;;;;;;;5.05;3.58;;;;;;;12.00;100.00;99465.28;4996849;28;20069;-74
2021/05/17 00:26:35;;;;;;;5.60;3.38;;;;;;;12.07;100.00;99474.09;5013724;28;20041;-74
2021/05/17 00:29:01;;;;;;;5.90;3.78;;;;;;;12.14;100.00;99463.25;5011729;28;20033;-75
2021/05/17 00:31:27;;;;;;;8.40;3.90;;;;;;;11.99;100.00;99477.22;5013339;28;20030;-74
2021/05/17 00:33:54;;;;;;;7.35;4.07;;;;;;;11.86;100.00;99468.81;5018409;28;20505;-73
2021/05/17 00:36:20;;;;;;;8.07;3.38;;;;;;;11.68;100.00;99462.72;5025120;28;20902;-74
2021/05/17 00:38:46;;;;;;;8.55;3.92;;;;;;;11.92;100.00;99467.25;5025377;28;20040;-73
2021/05/17 00:41:11;;;;;;;6.68;4.50;;;;;;;11.62;100.00;99464.25;5022170;28;20038;-74
2021/05/17 00:43:38;;;;;;;7.05;4.20;;;;;;;11.52;100.00;99457.72;5027076;28;20080;-74
2021/05/17 00:46:05;;;;;;;9.70;4.45;;;;;;;11.74;100.00;99453.84;5006229;28;20025;-74
2021/05/17 00:48:31;;;;;;;7.95;4.22;;;;;;;11.89;100.00;99459.91;5028582;28;20037;-74
2021/05/17 00:50:57;;;;;;;6.90;4.25;;;;;;;12.04;100.00;99457.94;5008419;28;20045;-73
2021/05/17 00:53:23;;;;;;;10.43;4.38;;;;;;;12.08;100.00;99447.91;5018571;28;20038;-74
2021/05/17 00:55:49;;;;;;;8.23;4.68;;;;;;;12.02;100.00;99458.31;5010574;28;20029;-73
2021/05/17 00:58:16;;;;;;;10.80;5.03;;;;;;;11.77;100.00;99449.56;5012353;28;20113;-74
2021/05/17 01:00:42;;;;;;;9.18;4.80;;;;;;;11.64;100.00;99451.13;5000607;28;20116;-73
2021/05/17 01:03:09;;;;;;;6.97;4.32;;;;;;;11.75;100.00;99451.88;5007820;28;20135;-73
2021/05/17 01:05:55;;;;;;;7.57;4.30;;;;;;;11.73;100.00;99456.91;5015366;28;20584;-73
2021/05/17 01:08:24;;;;;;;7.90;4.57;;;;;;;11.86;100.00;99463.41;5024118;28;20037;-73
2021/05/17 01:10:57;;;;;;;6.53;4.68;;;;;;;11.81;100.00;99463.06;5020675;28;20457;-74
2021/05/17 01:13:25;;;;;;;5.63;3.80;;;;;;;11.78;100.00;99462.69;5025198;28;20488;-73
2021/05/17 01:15:52;;;;;;;13.43;4.32;;;;;;;11.78;100.00;99461.91;5022955;28;20045;-74
2021/05/17 01:18:18;;;;;;;6.95;4.78;;;;;;;11.83;100.00;99466.88;5014217;28;20056;-75
2021/05/17 01:20:47;;;;;;;7.50;4.70;;;;;;;11.73;100.00;99462.28;5021334;28;20111;-74
2021/05/17 01:25:57;;;;;;;11.98;4.38;;;;;;;11.65;100.00;99458.09;4999847;28;20030;-75
2021/05/17 01:28:29;;;;;;;6.53;4.05;;;;;;;11.51;100.00;99453.50;5013273;28;20125;-74
2021/05/17 01:31:02;;;;;;;8.45;4.40;;;;;;;11.65;100.00;99452.69;5014703;28;20046;-73
2021/05/17 01:33:34;;;;;;;10.75;4.43;;;;;;;11.48;100.00;99458.88;4995931;28;20177;-73
2021/05/17 01:36:00;;;;;;;9.25;4.28;;;;;;;11.47;100.00;99462.75;5006810;28;20036;-74
2021/05/17 01:38:27;;;;;;;7.32;4.25;;;;;;;11.43;100.00;99457.38;5023961;28;20038;-74
2021/05/17 01:40:54;;;;;;;7.40;4.53;;;;;;;11.34;100.00;99459.69;5044940;22;20504;-75
2021/05/17 01:43:23;;;;;;;7.28;4.45;;;;;;;11.50;100.00;99459.25;5037010;28;20516;-74
2021/05/17 01:45:50;;;;;;;8.05;4.50;;;;;;;11.23;100.00;99463.56;5018185;28;20036;-75
2021/05/17 01:48:23;;;;;;;8.52;4.90;;;;;;;11.29;100.00;99459.31;5027663;28;20536;-74
2021/05/17 01:50:49;;;;;;;9.80;4.45;;;;;;;11.42;100.00;99455.06;5028424;28;20052;-74
2021/05/17 01:53:17;;;;;;;5.47;4.25;;;;;;;11.20;100.00;99465.13;5032664;28;20579;-74
2021/05/17 01:55:43;;;;;;;7.55;4.53;;;;;;;11.28;100.00;99455.88;5029740;28;20643;-74
2021/05/17 01:58:10;;;;;;;7.57;4.38;;;;;;;11.17;100.00;99459.75;5028677;28;20021;-75
2021/05/17 02:00:40;;;;;;;7.82;4.47;;;;;;;11.02;100.00;99461.69;5029303;28;20029;-75
2021/05/17 02:03:08;;;;;;;7.93;3.97;;;;;;;10.91;100.00;99460.94;5027915;28;20038;-74
2021/05/17 02:05:35;;;;;;;6.28;4.40;;;;;;;10.90;100.00;99459.38;5034427;28;20025;-75
2021/05/17 02:08:02;;;;;;;7.63;4.20;;;;;;;11.06;100.00;99458.97;5033317;28;20041;-74
2021/05/17 02:10:28;;;;;;;6.68;4.40;;;;;;;11.15;100.00;99453.97;5027899;28;20034;-73
2021/05/17 02:12:56;;;;;;;9.65;4.28;;;;;;;10.93;100.00;99455.16;5044210;28;20025;-74
2021/05/17 02:15:23;;;;;;;7.20;4.50;;;;;;;11.05;100.00;99457.47;5041922;28;20137;-74
2021/05/17 02:18:09;;;;;;;9.02;4.75;;;;;;;10.98;100.00;99454.75;5024411;28;20026;-74
2021/05/17 02:20:38;;;;;;;7.47;4.25;;;;;;;10.81;100.00;99464.41;5023498;28;20040;-73
2021/05/17 02:23:05;;;;;;;8.75;4.50;;;;;;;10.90;100.00;99465.53;5033161;28;20032;-75
2021/05/17 02:25:32;;;;;;;7.10;4.65;;;;;;;10.75;100.00;99457.84;5023134;28;20030;-75
2021/05/17 02:28:01;;;;;;;7.63;4.80;;;;;;;10.67;100.00;99459.78;5026666;28;20398;-74
2021/05/17 02:30:27;;;;;;;7.72;4.45;;;;;;;10.76;100.00;99462.84;5027311;28;20437;-74
2021/05/17 02:32:54;;;;;;;7.10;4.22;;;;;;;10.73;100.00;99460.94;5032470;28;20061;-75
2021/05/17 02:35:34;;;;;;;6.22;4.35;;;;;;;10.42;100.00;99456.28;5003772;28;20029;-74
2021/05/17 02:38:01;;;;;;;7.75;4.40;;;;;;;10.25;100.00;99464.34;5030962;28;20029;-74
2021/05/17 02:40:29;;;;;;;7.95;4.60;;;;;;;10.37;100.00;99464.75;5039222;28;20044;-75
2021/05/17 02:43:02;;;;;;;6.65;4.57;;;;;;;10.44;100.00;99467.44;5027973;28;20082;-75
2021/05/17 02:45:37;;;;;;;6.43;4.47;;;;;;;10.52;100.00;99457.47;5041736;28;20556;-75
2021/05/17 02:48:05;;;;;;;6.68;4.47;;;;;;;10.33;100.00;99466.66;5017247;28;20034;-74
2021/05/17 02:50:34;;;;;;;8.30;4.30;;;;;;;10.33;100.00;99469.38;5044736;28;20025;-74
2021/05/17 02:53:01;;;;;;;7.63;4.18;;;;;;;10.35;100.00;99467.06;5031875;28;20116;-75
2021/05/17 02:55:32;;;;;;;6.88;4.47;;;;;;;10.26;100.00;99476.66;5030543;28;20030;-74
2021/05/17 02:58:05;;;;;;;;;;;;;;;10.26;100.00;99473.97;5021578;28;20037;-75
2021/05/17 03:00:32;;;;;;;7.43;4.35;;;;;;;10.09;100.00;99470.03;5032391;28;19955;-74
2021/05/17 03:03:05;;;;;;;6.55;4.30;;;;;;;10.14;100.00;99475.09;5011092;28;20051;-75
2021/05/17 03:06:05;;;;;;;7.30;4.22;;;;;;;10.20;100.00;99484.31;4993946;28;20045;-75
2021/05/17 03:08:57;;;;;;;8.15;4.70;;;;;;;10.29;100.00;99475.88;5038171;28;20091;-75
2021/05/17 03:11:28;;;;;;;8.52;4.65;;;;;;;10.40;100.00;99474.75;5026105;28;20029;-74
2021/05/17 03:13:57;;;;;;;7.18;4.32;;;;;;;10.23;100.00;99483.56;5029581;28;20136;-75
2021/05/17 03:16:25;;;;;;;8.07;4.53;;;;;;;10.20;100.00;99484.31;5026644;28;20116;-75
2021/05/17 03:18:54;;;;;;;11.43;5.28;;;;;;;10.25;100.00;99481.25;5018704;28;20040;-75
2021/05/17 03:21:22;;;;;;;5.93;4.18;;;;;;;10.25;100.00;99485.88;5030718;28;20520;-75
2021/05/17 03:23:49;;;;;;;5.88;4.20;;;;;;;10.29;100.00;99482.03;5028301;28;20025;-74
2021/05/17 03:26:17;;;;;;;7.75;4.63;;;;;;;10.32;100.00;99477.78;5031075;28;20104;-75
2021/05/17 03:28:42;;;;;;;6.63;4.60;;;;;;;10.51;100.00;99480.16;5029925;28;20112;-75
2021/05/17 03:31:08;;;;;;;6.70;4.38;;;;;;;10.46;100.00;99483.22;5038371;28;20111;-74
2021/05/17 03:33:34;;;;;;;8.07;4.35;;;;;;;10.45;100.00;99473.59;5036255;28;20017;-75
2021/05/17 03:36:00;;;;;;;9.35;4.90;;;;;;;10.39;100.00;99486.69;5027712;28;20025;-74
2021/05/17 03:38:25;;;;;;;10.80;4.60;;;;;;;10.48;100.00;99479.00;5017972;28;20040;-74
2021/05/17 03:40:51;;;;;;;7.10;4.65;;;;;;;10.40;100.00;99488.19;5023735;28;20109;-74
2021/05/17 03:43:16;;;;;;;8.75;5.10;;;;;;;10.33;100.00;99482.81;5024108;28;20037;-73
2021/05/17 03:45:42;;;;;;;9.07;4.45;;;;;;;10.26;100.00;99482.03;5011890;28;20037;-74
2021/05/17 03:48:07;;;;;;;10.30;5.70;;;;;;;10.34;100.00;99491.63;5021274;28;20094;-74
2021/05/17 03:50:33;;;;;;;10.00;5.13;;;;;;;10.40;100.00;99488.19;5041179;28;20059;-74
2021/05/17 03:52:58;;;;;;;13.45;5.65;;;;;;;10.39;100.00;99489.38;5010999;28;20033;-75
2021/05/17 03:55:24;;;;;;;8.60;4.93;;;;;;;10.40;100.00;99487.41;5028106;28;20041;-74
2021/05/17 03:57:50;;;;;;;8.63;5.28;;;;;;;10.39;100.00;99485.91;5029754;28;20041;-74
2021/05/17 04:00:16;;;;;;;6.93;5.18;;;;;;;10.52;100.00;99482.47;5023705;28;20058;-73
2021/05/17 04:02:44;;;;;;;10.25;5.53;;;;;;;10.51;100.00;99480.91;5017899;28;20033;-73
2021/05/17 04:15:43;;;;;;;9.52;4.82;;;;;;;10.47;100.00;99503.59;5017407;28;20041;-74
2021/05/17 04:18:09;;;;;;;8.27;4.90;;;;;;;10.60;100.00;99496.69;5028692;28;20041;-73
2021/05/17 04:20:35;;;;;;;5.43;4.10;;;;;;;10.67;100.00;99500.16;5017908;28;20087;-73
2021/05/17 04:23:00;;;;;;;9.55;4.90;;;;;;;10.39;100.00;99500.13;5026608;28;20020;-73
2021/05/17 04:25:26;;;;;;;10.88;4.47;;;;;;;10.65;100.00;99499.78;5028089;28;20107;-74
2021/05/17 04:27:51;;;;;;;7.95;4.78;;;;;;;10.58;100.00;99509.75;5028249;28;20509;-73
2021/05/17 04:30:17;;;;;;;7.05;4.43;;;;;;;10.64;100.00;99514.41;5025040;28;20041;-73
2021/05/17 04:32:43;;;;;;;8.93;4.85;;;;;;;10.67;100.00;99518.22;5026177;28;20079;-74
2021/05/17 04:35:09;;;;;;;7.35;4.75;;;;;;;10.70;100.00;99525.56;5033962;28;20037;-74
2021/05/17 04:37:35;;;;;;;5.80;4.20;;;;;;;10.70;100.00;99529.00;5027711;28;20038;-73
2021/05/17 04:40:00;;;;;;;8.18;4.50;;;;;;;10.85;100.00;99524.41;5021173;28;20052;-73
2021/05/17 04:42:26;;;;;;;8.50;4.50;;;;;;;11.11;100.00;99531.34;5023755;28;20029;-74
2021/05/17 04:44:51;;;;;;;4.88;3.95;;;;;;;11.15;100.00;99532.13;5023458;28;20034;-75
2021/05/17 04:47:17;;;;;;;6.97;4.47;;;;;;;11.35;100.00;99539.41;5018444;28;20081;-75
2021/05/17 04:49:42;;;;;;;6.88;4.38;;;;;;;11.39;100.00;99542.88;5039184;28;20504;-74
2021/05/17 04:52:08;;;;;;;7.90;4.28;;;;;;;11.80;100.00;99540.50;5031358;28;20030;-73
2021/05/17 04:54:34;;;;;;;8.23;4.10;;;;;;;11.87;100.00;99534.31;5037714;28;20045;-75
2021/05/17 04:56:59;;;;;;;6.78;3.95;;;;;;;11.76;100.00;99535.13;5027369;28;20030;-75
2021/05/17 04:59:25;;;;;;;7.15;3.85;;;;;;;11.87;100.00;99539.69;5027526;28;20075;-74
2021/05/17 05:01:51;;;;;;;6.35;3.53;;;;;;;11.82;100.00;99540.88;5018422;28;20045;-74
2021/05/17 05:04:16;;;;;;;5.40;3.88;;;;;;;11.95;100.00;99542.00;5019429;28;20034;-74
2021/05/17 05:06:42;;;;;;;6.88;4.25;;;;;;;12.13;100.00;99542.72;5018006;28;20032;-74
2021/05/17 05:09:07;;;;;;;9.40;4.20;;;;;;;12.02;100.00;99531.16;5020193;28;20025;-74
2021/05/17 05:11:32;;;;;;;4.45;3.60;;;;;;;12.09;100.00;99536.56;5032047;28;20035;-74
2021/05/17 05:13:58;;;;;;;8.02;4.32;;;;;;;12.07;100.00;99543.50;5032282;28;20013;-75
2021/05/17 05:16:23;;;;;;;6.35;4.10;;;;;;;11.96;100.00;99542.78;5017522;28;20621;-74
2021/05/17 05:18:49;;;;;;;5.45;3.97;;;;;;;11.92;100.00;99548.19;5019058;28;20517;-75
2021/05/17 05:21:14;;;;;;;9.73;4.57;;;;;;;12.55;100.00;99534.38;5017271;28;20033;-75
2021/05/17 05:23:40;;;;;;;5.05;3.60;;;;;;;12.66;100.00;99545.88;5023828;28;20036;-74
2021/05/17 05:31:25;;;;;;;5.05;3.65;;;;;;;13.20;97.97;99554.41;5032762;28;20040;-76
2021/05/17 05:33:51;;;;;;;5.70;3.05;;;;;;;13.39;97.50;99551.91;5032671;28;20088;-75
2021/05/17 05:36:16;;;;;;;6.28;3.60;;;;;;;13.73;95.37;99548.47;5016256;28;20050;-76
2021/05/17 05:38:41;;;;;;;7.30;3.47;;;;;;;14.03;93.44;99541.19;5023936;28;20034;-74
2021/05/17 05:41:07;;;;;;;5.38;3.42;;;;;;;14.06;93.75;99548.50;5033795;28;20120;-74
2021/05/17 05:43:32;;;;;;;6.50;3.72;;;;;;;14.17;91.52;99546.44;5029837;28;20037;-74
2021/05/17 05:45:58;;;;;;;11.35;3.70;;;;;;;13.74;93.52;99544.63;5028452;28;20037;-74
2021/05/17 05:48:23;;;;;;;5.13;4.03;;;;;;;13.45;95.31;99544.91;5011632;28;20397;-74
2021/05/17 05:50:50;;;;;;;5.45;3.70;;;;;;;13.91;95.38;99541.72;5040390;28;20034;-74
2021/05/17 05:53:16;;;;;;;8.52;3.58;;;;;;;13.92;94.53;99542.47;5032154;28;20061;-74
2021/05/17 05:55:43;;;;;;;7.20;4.65;;;;;;;13.60;94.75;99550.94;5032029;28;20026;-74
2021/05/17 05:58:08;;;;;;;8.68;4.78;;;;;;;13.72;95.24;99546.97;5016958;28;20033;-74
2021/05/17 06:00:33;;;;;;;8.52;4.32;;;;;;;13.61;96.89;99549.75;5027461;28;20037;-74
2021/05/17 06:03:00;;;;;;;5.18;3.90;;;;;;;13.69;96.96;99556.66;5023777;28;20037;-74
2021/05/17 06:05:26;;;;;;;6.68;4.13;;;;;;;13.66;95.62;99556.69;5028786;28;20037;-74
2021/05/17 06:07:52;;;;;;;7.95;4.18;;;;;;;13.93;94.73;99569.16;5014063;28;20037;-75
2021/05/17 06:10:18;;;;;;;9.85;4.60;;;;;;;13.70;96.67;99562.84;5032902;28;20124;-75
2021/05/17 06:12:48;;;;;;;7.32;4.63;;;;;;;13.66;96.09;99571.00;5034132;28;20026;-74
2021/05/17 06:15:15;;;;;;;7.57;4.20;;;;;;;13.65;96.28;99579.47;5032383;28;20108;-74
2021/05/17 06:17:41;;;;;;;6.28;4.40;;;;;;;13.64;97.04;99588.78;5031092;28;20041;-75
2021/05/17 06:20:07;;;;;;;6.00;4.80;;;;;;;13.67;95.74;99585.25;5029483;28;20033;-75
2021/05/17 06:22:37;;;;;;;11.27;4.65;;;;;;;13.64;96.97;99594.97;5023085;28;20406;-75
2021/05/17 06:25:08;;;;;;;7.60;4.43;;;;;;;13.79;97.23;99590.94;5024764;28;20033;-74
2021/05/17 06:27:35;;;;;;;6.93;4.60;;;;;;;14.10;94.50;99589.06;5016156;28;20034;-75
2021/05/17 06:30:01;;;;;;;7.47;4.88;;;;;;;14.27;93.59;99588.91;5028610;28;20411;-76
2021/05/17 06:32:27;;;;;;;7.95;4.65;;;;;;;14.31;93.89;99588.84;5028828;28;20036;-75
2021/05/17 06:34:55;;;;;;;6.32;4.57;;;;;;;14.41;93.97;99593.38;5032803;28;20108;-75
2021/05/17 06:37:20;;;;;;;14.77;4.85;;;;;;;14.70;93.46;99591.06;5031397;28;20724;-75
2021/05/17 06:39:46;;;;;;;7.75;4.88;;;;;;;15.29;91.28;99592.84;5024455;28;20131;-75
2021/05/17 06:42:12;;;;;;;7.68;4.50;;;;;;;15.51;90.70;99604.16;5023121;28;20025;-75
2021/05/17 06:44:38;;;;;;;6.25;4.80;;;;;;;15.30;87.50;99605.25;5021581;28;20021;-76
2021/05/17 06:47:04;;;;;;;5.88;4.10;;;;;;;15.46;88.26;99609.31;5018381;28;20100;-75
2021/05/17 06:49:31;;;;;;;7.63;4.60;;;;;;;15.37;88.38;99602.41;5024076;28;20033;-75
2021/05/17 06:51:57;;;;;;;7.47;4.65;;;;;;;15.54;88.94;99600.63;5023230;28;20083;-75
2021/05/17 06:54:28;;;;;;;8.15;4.72;;;;;;;15.71;87.47;99602.28;5021319;28;20033;-74
2021/05/17 06:57:02;;;;;;;9.32;4.53;;;;;;;15.43;89.36;99615.56;5024724;28;20034;-75
2021/05/17 06:59:30;;;;;;;7.07;4.60;;;;;;;15.26;88.95;99603.78;5036738;28;20044;-74
2021/05/17 07:01:56;;;;;;;6.93;4.07;;;;;;;15.26;89.18;99612.69;5037428;28;20079;-74
2021/05/17 07:04:22;;;;;;;8.70;4.30;;;;;;;15.39;89.59;99607.44;5042198;28;20029;-75
2021/05/17 07:06:54;;;;;;;9.27;4.22;;;;;;;15.55;88.24;99610.31;5029698;28;20113;-75
2021/05/17 07:12:10;;;;;;;8.70;4.38;;;;;;;14.99;89.75;99611.16;5022295;28;20389;-75
2021/05/17 07:14:35;;;;;;;5.53;4.07;;;;;;;15.07;89.19;99609.88;5018874;28;20033;-75
2021/05/17 07:17:01;;;;;;;5.60;4.30;;;;;;;15.07;89.50;99612.59;5024068;28;20034;-76
2021/05/17 07:19:26;;;;;;;9.98;4.57;;;;;;;15.15;89.23;99619.44;5020980;28;20041;-76
2021/05/17 07:24:37;;;;;;;9.38;4.28;;;;;;;14.75;92.57;99613.03;5023287;28;20084;-75
2021/05/17 07:27:02;;;;;;;7.32;4.40;;;;;;;14.56;93.77;99621.03;5021705;28;20498;-75
2021/05/17 07:29:32;;;;;;;11.05;4.32;;;;;;;14.65;93.29;99618.63;5017456;28;20080;-75
2021/05/17 07:31:57;;;;;;;7.82;5.05;;;;;;;14.69;92.56;99613.91;5035551;28;20052;-75
2021/05/17 07:34:23;;;;;;;7.82;4.80;;;;;;;14.70;93.59;99631.69;5030831;28;20017;-75
2021/05/17 07:36:49;;;;;;;11.15;5.00;;;;;;;14.70;93.34;99620.88;5027257;28;20164;-74
2021/05/17 07:39:15;;;;;;;9.18;5.32;;;;;;;14.66;93.73;99628.28;5034405;28;20102;-74
2021/05/17 07:41:41;;;;;;;10.32;5.35;;;;;;;14.70;93.99;99626.28;5039406;22;20041;-74
2021/05/17 07:44:07;;;;;;;8.57;5.47;;;;;;;15.06;92.48;99627.34;5018888;28;20042;-74
2021/05/17 07:46:33;;;;;;;8.52;5.03;;;;;;;15.44;90.63;99631.44;5013015;28;20025;-75
2021/05/17 07:49:16;;;;;;;8.63;4.80;;;;;;;15.76;87.43;99623.50;5021193;28;20037;-74
2021/05/17 07:51:43;;;;;;;9.93;4.88;;;;;;;16.08;87.13;99625.66;5007096;28;20057;-75
2021/05/17 07:54:14;;;;;;;9.85;4.60;;;;;;;16.13;85.38;99631.38;5009730;28;20021;-74
2021/05/17 07:56:40;;;;;;;9.80;4.88;;;;;;;16.19;84.37;99626.97;5005674;28;20036;-74
2021/05/17 07:59:06;;;;;;;7.88;4.68;;;;;;;16.47;84.76;99624.88;4998796;28;20042;-74
2021/05/17 08:01:32;;;;;;;9.00;4.25;;;;;;;16.52;81.76;99629.84;5017538;28;20666;-74
2021/05/17 08:03:57;;;;;;;7.72;4.38;;;;;;;16.77;81.07;99621.94;4990952;28;20026;-74
2021/05/17 08:06:26;;;;;;;9.50;4.50;;;;;;;17.41;79.64;99626.69;4993595;28;20045;-74
2021/05/17 08:08:52;;;;;;;7.60;3.75;;;;;;;17.23;76.10;99626.38;5000357;28;20033;-74
2021/05/17 08:11:19;;;;;;;8.32;3.80;;;;;;;17.88;75.52;99630.59;4996393;28;20030;-74
2021/05/17 08:13:44;;;;;;;8.13;4.30;;;;;;;18.20;74.60;99625.03;5012877;28;20033;-74
2021/05/17 08:16:10;;;;;;;7.47;4.10;;;;;;;18.52;74.48;99624.19;5010951;28;20018;-74
2021/05/17 08:18:37;;;;;;;5.13;3.30;;;;;;;18.75;71.60;99623.91;5005529;28;20368;-74
2021/05/17 08:21:04;;;;;;;6.40;3.35;;;;;;;18.46;67.99;99631.38;5003735;28;20030;-75
2021/05/17 08:23:30;;;;;;;8.50;3.70;;;;;;;18.21;69.50;99623.09;5002195;28;20018;-75
2021/05/17 08:25:56;;;;;;;7.70;3.80;;;;;;;18.13;68.81;99625.25;5005710;28;20038;-74
2021/05/17 08:28:22;;;;;;;8.98;3.70;;;;;;;18.07;71.44;99629.69;5009785;28;20504;-75
2021/05/17 08:30:54;;;;;;;5.85;3.08;;;;;;;18.34;71.46;99638.28;4997985;28;20662;-75
2021/05/17 08:33:19;;;;;;;8.00;3.17;;;;;;;18.56;69.48;99627.59;5012999;28;20388;-75
2021/05/17 08:35:46;;;;;;;6.05;3.28;;;;;;;18.82;65.38;99634.59;5007544;28;20033;-74
2021/05/17 08:38:11;;;;;;;9.07;2.75;;;;;;;19.16;63.52;99631.22;5011768;28;20374;-74
2021/05/17 08:40:39;;;;;;;4.13;2.45;;;;;;;19.33;63.49;99632.66;5012129;28;20034;-74
2021/05/17 08:43:05;;;;;;;5.15;2.72;;;;;;;19.51;64.41;99633.59;5011207;28;20150;-75
2021/05/17 08:45:32;;;;;;;5.50;2.63;;;;;;;19.26;66.66;99628.16;5009988;28;20470;-74
2021/05/17 08:47:58;;;;;;;7.55;2.50;;;;;;;19.60;65.54;99635.66;5008615;28;20100;-75
2021/05/17 08:50:24;;;;;;;8.68;2.90;;;;;;;19.82;63.94;99633.00;5012572;28;20022;-75
2021/05/17 08:53:10;;;;;;;5.68;2.63;;;;;;;19.72;61.48;99629.41;5007383;28;20049;-75
2021/05/17 08:55:37;;;;;;;5.18;2.70;;;;;;;19.88;62.51;99625.75;4958893;28;20082;-76
2021/05/17 08:58:02;;;;;;;3.95;2.30;;;;;;;19.59;63.43;99623.19;4939795;28;20055;-73
2021/05/17 09:00:28;;;;;;;5.25;2.47;;;;;;;19.41;61.10;99626.53;4960733;28;20186;-76
2021/05/17 09:02:54;;;;;;;7.03;2.40;;;;;;;19.39;62.41;99622.72;4953224;29;20064;-74
2021/05/17 09:05:24;;;;;;;3.25;2.30;;;;;;;19.80;58.99;99626.00;4952660;29;20143;-74
2021/05/17 09:08:01;;;;;;;4.55;1.80;;;;;;;19.74;58.27;99640.69;4950401;28;20068;-74
2021/05/17 09:10:31;;;;;;;6.03;1.60;;;;;;;19.67;57.49;99629.97;4952080;29;20043;-75
2021/05/17 09:13:04;;;;;;;5.82;1.88;;;;;;;19.20;56.99;99631.88;4952761;29;20058;-74
2021/05/17 09:15:37;;;;;;;3.92;1.75;;;;;;;18.97;62.13;99629.47;4945109;29;20030;-75
2021/05/17 09:18:10;;;;;;;6.00;1.77;;;;;;;19.02;63.63;99626.97;4948797;29;20043;-75
2021/05/17 09:20:37;;;;;;;5.13;2.00;;;;;;;18.90;64.53;99642.13;4955375;28;20107;-75
2021/05/17 09:23:11;;;;;;;4.05;1.60;;;;;;;19.03;63.74;99622.28;4936524;29;20031;-74
2021/05/17 09:25:38;;;;;;;6.03;1.92;;;;;;;18.91;65.86;99632.00;4952264;29;20091;-76
2021/05/17 09:28:07;;;;;;;3.92;1.85;;;;;;;18.77;65.34;99632.41;4951785;28;20122;-75
2021/05/17 09:30:49;;;;;;;4.55;1.65;;;;;;;18.55;65.54;99631.50;4954092;28;20064;-74
2021/05/17 09:33:20;;;;;;;5.40;1.85;;;;;;;18.65;61.61;99631.19;4987184;28;20064;-75
2021/05/17 09:35:47;;;;;;;;;;;;;;;17.70;65.04;99625.59;5007583;28;20153;-74
2021/05/17 09:38:38;;;;;;;3.95;2.00;;;;;;;17.91;69.03;99633.22;5019063;28;19913;-75
2021/05/17 09:41:07;;;;;;;;;;;;;;;17.70;69.09;99628.31;5003608;28;20042;-74
2021/05/17 09:43:34;;;;;;;6.75;1.98;;;;;;;17.95;69.72;99623.00;5003748;28;20321;-74
2021/05/17 09:46:00;;;;;;;4.38;1.67;;;;;;;17.23;65.92;99626.38;5008917;28;20448;-75
2021/05/17 09:48:45;;;;;;;3.47;1.42;;;;;;;17.64;63.03;99629.25;5006939;28;20038;-74
2021/05/17 09:51:13;;;;;;;2.88;1.30;;;;;;;18.69;63.01;99626.41;4998610;28;20185;-74
2021/05/17 09:53:44;;;;;;;2.45;1.50;;;;;;;19.09;57.99;99617.78;5014837;28;20104;-74
2021/05/17 09:56:12;;;;;;;7.60;1.80;;;;;;;18.45;57.94;99613.47;5010233;28;20026;-74
2021/05/17 09:58:44;;;;;;;3.45;1.25;;;;;;;19.59;58.33;99629.44;5011342;28;20431;-74
2021/05/17 10:01:12;;;;;;;3.10;1.15;;;;;;;19.74;53.95;99629.75;5007919;28;20026;-74
2021/05/17 10:03:55;;;;;;;6.45;1.48;;;;;;;20.61;53.36;99633.31;5006524;28;20037;-74
2021/05/17 10:06:26;;;;;;;2.47;1.25;;;;;;;20.86;53.49;99630.41;5006530;28;20660;-75
2021/05/17 10:08:54;;;;;;;4.53;1.48;;;;;;;21.39;54.62;99631.81;5004560;28;20034;-74
2021/05/17 10:11:21;;;;;;;5.18;1.08;;;;;;;21.38;51.68;99635.78;4995881;28;20030;-74
2021/05/17 10:13:48;;;;;;;1.98;1.13;;;;;;;20.89;52.76;99634.19;5011285;28;20088;-75
2021/05/17 10:16:16;;;;;;;3.22;1.30;;;;;;;20.96;51.68;99633.94;5003054;28;20041;-75
2021/05/17 10:18:43;;;;;;;1.85;1.20;;;;;;;20.92;51.28;99636.81;5018907;28;20112;-74
2021/05/17 10:21:10;;;;;;;3.72;1.00;;;;;;;;;;5006307;28;20030;-75
2021/05/17 10:23:39;;;;;;;3.53;1.27;;;;;;;20.18;51.48;99633.28;5012465;28;20029;-74
2021/05/17 10:26:07;;;;;;;3.70;1.27;;;;;;;19.65;55.07;99640.56;5018936;28;20030;-74
2021/05/17 10:28:34;;;;;;;2.80;0.98;;;;;;;19.83;54.16;99631.78;5010756;28;20018;-74
2021/05/17 10:31:15;;;;;;;3.72;1.10;;;;;;;19.47;53.94;99634.94;5010130;28;20044;-75
2021/05/17 10:34:00;;;;;;;3.75;1.10;;;;;;;19.13;54.32;99635.59;5005163;28;20084;-74
2021/05/17 10:36:45;;;;;;;4.18;1.20;;;;;;;19.17;55.96;99638.97;5009120;28;20395;-74
2021/05/17 10:39:14;;;;;;;3.30;1.13;;;;;;;18.17;55.35;99638.78;5000946;28;20026;-74
2021/05/17 10:47:49;;;;;;;3.22;1.20;;;;;;;19.39;58.24;99644.56;5016549;28;20038;-74
2021/05/17 10:50:18;;;;;;;4.55;1.20;;;;;;;19.06;55.49;99654.91;5007075;28;20504;-74
2021/05/17 10:52:44;;;;;;;2.78;1.17;;;;;;;19.11;56.00;99650.88;5003861;28;20069;-74
2021/05/17 10:55:15;;;;;;;3.67;1.10;;;;;;;18.81;56.79;99665.81;5009840;28;20443;-73
2021/05/17 11:00:34;;;;;;;2.95;1.23;;;;;;;18.21;62.16;99681.09;4997572;28;20098;-74
2021/05/17 11:03:21;;;;;;;1.67;1.10;;;;;;;17.64;64.63;99675.53;5011452;28;20030;-74
2021/05/17 11:05:48;;;;;;;4.75;1.30;;;;;;;17.03;69.37;99689.75;5008452;28;20049;-74
2021/05/17 11:08:17;;;;;;;4.13;1.08;;;;;;;17.23;71.78;99689.69;5011665;28;20049;-74
2021/05/17 11:10:45;;;;;;;1.38;1.20;;;;;;;16.77;77.71;99689.94;5006333;28;20037;-74
2021/05/17 11:13:10;;;;;;;3.22;0.95;;;;;;;16.53;83.58;99696.63;5010435;28;20200;-74
2021/05/17 11:15:46;;;;;;;4.30;1.20;;;;;;;16.38;85.65;99695.31;5005185;28;20125;-74
2021/05/17 11:18:12;;;;;;;6.10;1.50;;;;;;;16.15;86.44;99688.00;4994944;28;20490;-73
2021/05/17 11:20:40;;;;;;;1.70;0.90;;;;;;;15.90;87.74;99699.28;5001311;28;20037;-75
2021/05/17 11:23:06;;;;;;;4.88;1.33;;;;;;;15.45;91.71;99708.19;5011019;28;20110;-74
2021/05/17 11:25:56;;;;;;;4.63;1.15;;;;;;;15.21;92.22;99707.31;5009204;28;20039;-74
2021/05/17 11:28:37;;;;;;;3.55;1.20;;;;;;;15.19;94.46;99706.97;5004965;28;20042;-74
2021/05/17 11:31:15;;;;;;;1.50;1.40;;;;;;;14.93;96.83;99708.47;5006579;28;20080;-74
2021/05/17 11:34:01;;;;;;;3.63;1.00;;;;;;;15.16;96.32;99707.78;5009889;28;20034;-74
2021/05/17 11:36:31;;;;;;;1.75;1.20;;;;;;;15.31;94.97;99715.31;4984775;28;20038;-74
2021/05/17 11:39:15;;;;;;;2.10;1.30;;;;;;;15.30;96.09;99716.50;5005675;28;20045;-74
2021/05/17 11:42:03;;;;;;;2.25;1.50;;;;;;;15.07;97.18;99710.22;5006133;28;20501;-74
2021/05/17 11:44:31;;;;;;;1.60;1.00;;;;;;;14.84;98.19;99710.13;5006707;28;20034;-74
2021/05/17 11:47:15;;;;;;;1.15;0.80;;;;;;;15.48;95.58;99716.25;5001118;28;20036;-74
2021/05/17 11:49:44;;;;;;;1.10;1.00;;;;;;;16.08;94.84;99713.34;5014649;28;20058;-74
2021/05/17 11:52:12;;;;;;;2.05;1.10;;;;;;;16.63;96.44;99710.00;5001167;28;20022;-73
2021/05/17 11:54:43;;;;;;;1.50;0.80;;;;;;;17.08;95.35;99707.53;5015998;28;20513;-74
2021/05/17 11:57:10;;;;;;;2.63;0.95;;;;;;;17.21;91.43;99707.66;5003679;28;20128;-74
2021/05/17 11:59:36;;;;;;;1.35;0.80;;;;;;;17.84;93.25;99709.69;4983208;28;20069;-74
2021/05/17 12:02:05;;;;;;;1.23;0.90;;;;;;;18.27;89.94;99698.47;5000162;28;20549;-75
2021/05/17 12:04:41;;;;;;;3.90;1.17;;;;;;;17.67;77.61;99710.84;5004207;28;20044;-75
2021/05/17 12:07:09;;;;;;;2.63;1.92;;;;;;;17.56;83.00;99710.34;5004915;28;20506;-75
2021/05/17 12:09:37;;;;;;;1.15;0.95;;;;;;;17.63;80.91;99704.00;4996067;28;20418;-75
2021/05/17 12:12:06;;;;;;;5.18;3.15;;;;;;;17.70;79.67;99703.81;4992279;28;20501;-75